Time;durP1;ratioP1;P1;durP2;ratioP2;P2;SDS_P1;SDS_P2;PMS_P1;PMS_P2;Temp;Humidity;BMP_temperature;BMP_pressure;BME280_temperature;BME280_humidity;BME280_pressure;Samples;Min_cycle;Max_cycle;Signal;HPM_P1;HPM_P2
2023/11/26 00:00:26;;;;;;;0.70;0.70;;;1.40;99.90;;;;;;4969778;28;20039;-40
2023/11/26 00:02:52;;;;;;;0.75;0.75;;;1.40;99.90;;;;;;4969049;28;20034;-41
2023/11/26 00:05:19;;;;;;;4.80;1.20;;;1.40;99.90;;;;;;4967101;28;20022;-38
2023/11/26 00:07:44;;;;;;;0.82;0.82;;;1.40;99.90;;;;;;4966353;28;20377;-40
2023/11/26 00:10:10;;;;;;;1.38;1.35;;;1.30;99.90;;;;;;4969384;28;20038;-39
2023/11/26 00:12:35;;;;;;;0.80;0.80;;;1.40;99.90;;;;;;4968831;28;20488;-33
2023/11/26 00:15:01;;;;;;;0.98;0.98;;;1.40;99.90;;;;;;4967274;28;20035;-41
2023/11/26 00:17:27;;;;;;;1.02;1.02;;;1.40;99.90;;;;;;4968486;28;20089;-40
2023/11/26 00:19:54;;;;;;;1.38;1.38;;;1.40;99.90;;;;;;4970785;28;20034;-38
2023/11/26 00:22:19;;;;;;;0.90;0.90;;;1.40;99.90;;;;;;4968704;28;20102;-39
2023/11/26 00:24:45;;;;;;;0.93;0.93;;;1.40;99.90;;;;;;4969926;28;20034;-35
2023/11/26 00:27:11;;;;;;;0.85;0.85;;;1.40;99.90;;;;;;4968272;28;20029;-30
2023/11/26 00:29:43;;;;;;;2.00;1.75;;;1.40;99.90;;;;;;4972263;28;20114;-30
2023/11/26 00:32:09;;;;;;;2.00;1.90;;;1.40;99.90;;;;;;4962409;28;20125;-30
2023/11/26 00:34:36;;;;;;;1.77;1.67;;;1.40;99.90;;;;;;4965053;28;20109;-30
2023/11/26 00:37:02;;;;;;;1.67;1.58;;;1.50;99.90;;;;;;4972709;28;20022;-30
2023/11/26 00:39:28;;;;;;;2.03;1.83;;;1.50;99.90;;;;;;4967138;28;20039;-32
2023/11/26 00:41:53;;;;;;;1.95;1.85;;;1.50;99.90;;;;;;4957967;28;20041;-31
2023/11/26 00:44:19;;;;;;;1.70;1.65;;;1.50;99.90;;;;;;4969975;28;20472;-30
2023/11/26 00:46:45;;;;;;;1.95;1.80;;;1.50;99.90;;;;;;4968391;28;20094;-30
2023/11/26 00:49:12;;;;;;;2.40;2.20;;;1.50;99.90;;;;;;4974380;28;20026;-31
2023/11/26 00:51:38;;;;;;;2.10;2.00;;;1.50;99.90;;;;;;4968898;28;20050;-30
2023/11/26 00:54:05;;;;;;;1.60;1.50;;;1.50;99.90;;;;;;4970456;28;20358;-30
2023/11/26 00:56:32;;;;;;;1.60;1.55;;;1.50;99.90;;;;;;4948732;28;20034;-32
2023/11/26 00:58:57;;;;;;;2.20;2.10;;;1.50;99.90;;;;;;4969045;28;20396;-39
2023/11/26 01:01:23;;;;;;;1.80;1.67;;;1.50;99.90;;;;;;4968604;28;20137;-39
2023/11/26 01:03:49;;;;;;;3.42;1.95;;;1.50;99.90;;;;;;4966944;28;20033;-37
2023/11/26 01:06:14;;;;;;;1.90;1.80;;;1.50;99.90;;;;;;4969186;28;20085;-38
2023/11/26 01:08:40;;;;;;;2.42;1.80;;;1.50;99.90;;;;;;4968274;28;20031;-39
2023/11/26 01:11:12;;;;;;;2.00;1.50;;;1.50;99.90;;;;;;4968533;28;20061;-40
2023/11/26 01:13:39;;;;;;;1.98;1.80;;;1.50;99.90;;;;;;4968521;28;20130;-39
2023/11/26 01:16:06;;;;;;;1.48;1.38;;;1.50;99.90;;;;;;4969414;28;20061;-39
2023/11/26 01:18:31;;;;;;;1.42;1.42;;;1.50;99.90;;;;;;4968259;28;20392;-38
2023/11/26 01:20:57;;;;;;;1.42;1.33;;;1.50;99.90;;;;;;4968538;28;20039;-39
2023/11/26 01:23:23;;;;;;;1.35;1.25;;;1.50;99.90;;;;;;4969327;28;20023;-38
2023/11/26 01:25:49;;;;;;;1.52;1.48;;;1.40;99.90;;;;;;4966063;28;20563;-37
2023/11/26 01:28:15;;;;;;;1.50;1.40;;;1.50;99.90;;;;;;4967047;28;20129;-38
2023/11/26 01:30:41;;;;;;;1.63;1.52;;;1.50;99.90;;;;;;4967823;28;20043;-39
2023/11/26 01:33:07;;;;;;;1.00;1.00;;;1.50;99.90;;;;;;4964536;28;20389;-38
2023/11/26 01:35:34;;;;;;;1.40;1.40;;;1.40;99.90;;;;;;4968298;28;20046;-33
2023/11/26 01:38:00;;;;;;;1.90;1.80;;;1.40;99.90;;;;;;4969457;28;20515;-30
2023/11/26 01:40:25;;;;;;;1.95;1.85;;;1.40;99.90;;;;;;4967943;28;20022;-32
2023/11/26 01:42:51;;;;;;;1.60;1.50;;;1.40;99.90;;;;;;4967724;28;20561;-31
2023/11/26 01:45:17;;;;;;;3.72;1.60;;;1.40;99.90;;;;;;4966934;28;20065;-37
2023/11/26 01:47:43;;;;;;;1.17;1.17;;;1.40;99.90;;;;;;4965822;28;20089;-31
2023/11/26 01:50:13;;;;;;;1.33;1.30;;;1.40;99.90;;;;;;4967140;28;20045;-34
2023/11/26 01:52:42;;;;;;;1.38;1.38;;;1.40;99.90;;;;;;4966731;28;20061;-32
2023/11/26 01:55:08;;;;;;;1.52;1.42;;;1.40;99.90;;;;;;4967996;28;20037;-31
2023/11/26 01:57:34;;;;;;;1.13;1.13;;;1.40;99.90;;;;;;4968463;28;20035;-32
2023/11/26 02:00:00;;;;;;;1.25;1.25;;;1.30;99.90;;;;;;4964551;28;20125;-32
2023/11/26 02:02:25;;;;;;;0.95;0.95;;;1.30;99.90;;;;;;4966097;28;20429;-31
2023/11/26 02:04:51;;;;;;;1.42;1.40;;;1.30;99.90;;;;;;4967678;28;20030;-31
2023/11/26 02:07:17;;;;;;;2.90;1.63;;;1.30;99.90;;;;;;4967436;28;20042;-39
2023/11/26 02:09:43;;;;;;;0.95;0.95;;;1.20;99.90;;;;;;4968317;28;20042;-39
2023/11/26 02:12:09;;;;;;;1.50;1.40;;;1.30;99.90;;;;;;4968587;28;20038;-39
2023/11/26 02:14:35;;;;;;;1.00;1.00;;;1.20;99.90;;;;;;4967331;28;20068;-40
2023/11/26 02:17:02;;;;;;;1.10;1.10;;;1.20;99.90;;;;;;4968619;28;20114;-40
2023/11/26 02:19:38;;;;;;;1.83;1.67;;;1.20;99.90;;;;;;4968300;28;20035;-39
2023/11/26 02:22:07;;;;;;;1.45;1.30;;;1.10;99.90;;;;;;4964948;28;20093;-35
2023/11/26 02:24:51;;;;;;;1.50;1.40;;;1.10;99.90;;;;;;4969047;28;20031;-37
2023/11/26 02:27:17;;;;;;;1.20;1.20;;;1.10;99.90;;;;;;4967021;28;20721;-39
2023/11/26 02:29:42;;;;;;;1.80;1.70;;;1.10;99.90;;;;;;4966586;28;20030;-40
2023/11/26 02:32:09;;;;;;;1.58;1.58;;;1.00;99.90;;;;;;4966978;28;20085;-40
2023/11/26 02:34:35;;;;;;;0.80;0.80;;;1.00;99.90;;;;;;4967409;28;20034;-39
2023/11/26 02:37:01;;;;;;;2.42;1.55;;;0.90;99.90;;;;;;4965829;28;20030;-40
2023/11/26 02:39:29;;;;;;;1.85;1.45;;;1.00;99.90;;;;;;4968843;28;20488;-39
2023/11/26 02:41:55;;;;;;;1.50;1.40;;;0.90;99.90;;;;;;4966640;28;20038;-39
2023/11/26 02:44:21;;;;;;;1.30;1.20;;;1.00;99.90;;;;;;4966832;28;20355;-39
2023/11/26 02:46:47;;;;;;;3.55;1.52;;;1.00;99.90;;;;;;4967347;28;20041;-37
2023/11/26 02:49:13;;;;;;;1.10;1.10;;;1.00;99.90;;;;;;4967495;28;20035;-41
2023/11/26 02:51:39;;;;;;;7.35;1.75;;;0.80;99.90;;;;;;4968410;28;20039;-42
2023/11/26 02:54:04;;;;;;;0.93;0.93;;;0.80;99.90;;;;;;4969040;28;20042;-35
2023/11/26 02:56:30;;;;;;;1.50;1.40;;;0.80;99.90;;;;;;4967145;28;20027;-36
2023/11/26 02:58:56;;;;;;;1.30;1.30;;;0.80;99.90;;;;;;4969195;28;20118;-40
2023/11/26 03:01:22;;;;;;;1.33;1.23;;;0.80;99.90;;;;;;4965385;28;20470;-40
2023/11/26 03:03:48;;;;;;;1.10;1.10;;;0.80;99.90;;;;;;4972020;28;20030;-40
2023/11/26 03:06:17;;;;;;;1.33;1.10;;;0.80;99.90;;;;;;4970471;28;20023;-42
2023/11/26 03:08:43;;;;;;;1.20;1.10;;;0.80;99.90;;;;;;4970857;28;20211;-42
2023/11/26 03:13:55;;;;;;;1.27;1.10;;;0.60;99.90;;;;;;4969982;28;20038;-43
2023/11/26 03:16:23;;;;;;;1.35;1.30;;;0.60;99.90;;;;;;4971122;28;20031;-43
2023/11/26 03:18:49;;;;;;;1.38;1.38;;;0.60;99.90;;;;;;4970958;28;20139;-42
2023/11/26 03:21:16;;;;;;;1.30;1.30;;;0.60;99.90;;;;;;4971290;28;20157;-40
2023/11/26 03:23:42;;;;;;;1.10;1.10;;;0.60;99.90;;;;;;4970840;28;20074;-42
2023/11/26 03:26:08;;;;;;;1.70;1.60;;;0.60;99.90;;;;;;4971677;28;20412;-41
2023/11/26 03:28:34;;;;;;;1.30;1.30;;;0.60;99.90;;;;;;4969035;28;20033;-33
2023/11/26 03:31:00;;;;;;;1.05;1.05;;;0.60;99.90;;;;;;4970504;28;20130;-40
2023/11/26 03:33:27;;;;;;;1.23;1.23;;;0.60;99.90;;;;;;4972727;28;20370;-41
2023/11/26 03:35:53;;;;;;;2.47;1.30;;;0.60;99.90;;;;;;4970036;28;20043;-42
2023/11/26 03:38:19;;;;;;;2.00;1.20;;;0.60;99.90;;;;;;4971151;28;20098;-40
2023/11/26 03:40:45;;;;;;;1.33;1.23;;;0.50;99.90;;;;;;4971585;28;20042;-39
2023/11/26 03:43:11;;;;;;;0.85;0.85;;;0.50;99.90;;;;;;4972855;28;20034;-38
2023/11/26 03:45:37;;;;;;;1.63;1.20;;;0.50;99.90;;;;;;4971393;28;20042;-43
2023/11/26 03:48:03;;;;;;;2.60;1.35;;;0.40;99.90;;;;;;4969560;28;20038;-42
2023/11/26 03:50:29;;;;;;;1.38;1.38;;;0.40;99.90;;;;;;4970255;28;20554;-41
2023/11/26 03:52:55;;;;;;;1.77;1.67;;;0.40;99.90;;;;;;4971763;28;20031;-36
2023/11/26 03:55:21;;;;;;;1.85;1.63;;;0.40;99.90;;;;;;4971351;28;20424;-41
2023/11/26 03:57:47;;;;;;;5.15;1.75;;;0.40;99.90;;;;;;4969146;28;20035;-35
2023/11/26 04:00:13;;;;;;;1.30;1.30;;;0.40;99.90;;;;;;4969535;28;20480;-33
2023/11/26 04:02:39;;;;;;;1.23;1.23;;;0.40;99.90;;;;;;4969164;28;20038;-33
2023/11/26 04:05:07;;;;;;;1.33;1.33;;;0.30;99.90;;;;;;4970051;28;20023;-35
2023/11/26 04:07:33;;;;;;;1.60;1.50;;;0.30;99.90;;;;;;4968982;28;20035;-34
2023/11/26 04:09:59;;;;;;;1.05;1.05;;;0.20;99.90;;;;;;4970082;28;20035;-33
2023/11/26 04:12:24;;;;;;;1.35;1.35;;;0.20;99.90;;;;;;4969737;28;20039;-32
2023/11/26 04:14:58;;;;;;;0.95;0.95;;;0.10;99.90;;;;;;4967621;28;20034;-35
2023/11/26 04:17:25;;;;;;;3.10;1.50;;;0.10;99.90;;;;;;4969893;28;20070;-33
2023/11/26 04:19:57;;;;;;;4.30;1.92;;;0.10;99.90;;;;;;4968639;28;20039;-36
2023/11/26 04:22:23;;;;;;;1.70;1.60;;;0.10;99.90;;;;;;4968333;28;20472;-33
2023/11/26 04:24:50;;;;;;;3.55;1.70;;;0.20;99.90;;;;;;4969361;28;20031;-33
2023/11/26 04:27:16;;;;;;;3.90;1.88;;;0.20;99.90;;;;;;4968475;28;20070;-33
2023/11/26 04:29:43;;;;;;;1.48;1.45;;;0.20;99.90;;;;;;4970313;28;20476;-34
2023/11/26 04:32:08;;;;;;;3.45;1.80;;;0.20;99.90;;;;;;4967551;28;20070;-36
2023/11/26 04:34:34;;;;;;;1.83;1.60;;;0.10;99.90;;;;;;4970719;28;20034;-36
2023/11/26 04:36:59;;;;;;;1.90;1.80;;;0.10;99.90;;;;;;4968574;28;20027;-33
2023/11/26 04:39:25;;;;;;;1.70;1.60;;;0.10;99.90;;;;;;4968557;28;20042;-34
2023/11/26 04:41:52;;;;;;;2.25;1.50;;;0.10;99.90;;;;;;4968659;28;20041;-33
2023/11/26 04:44:18;;;;;;;1.90;1.70;;;0.10;99.90;;;;;;4969197;28;20110;-33
2023/11/26 04:46:45;;;;;;;1.50;1.40;;;0.00;99.90;;;;;;4969054;28;20484;-33
2023/11/26 04:49:11;;;;;;;2.28;1.80;;;0.00;99.90;;;;;;4970215;28;20416;-34
2023/11/26 04:51:37;;;;;;;1.70;1.60;;;0.00;99.90;;;;;;4966309;28;20110;-34
2023/11/26 04:54:03;;;;;;;1.52;1.42;;;0.10;99.90;;;;;;4970547;28;20167;-35
2023/11/26 04:56:29;;;;;;;1.92;1.80;;;0.00;99.90;;;;;;4967844;28;20074;-38
2023/11/26 04:58:55;;;;;;;1.92;1.77;;;0.00;99.90;;;;;;4966129;28;20042;-32
2023/11/26 05:01:23;;;;;;;1.75;1.67;;;0.00;99.90;;;;;;4968908;28;20054;-32
2023/11/26 05:03:49;;;;;;;1.55;1.55;;;-0.10;99.90;;;;;;4970349;28;20495;-35
2023/11/26 05:06:14;;;;;;;2.13;1.90;;;-0.10;99.90;;;;;;4967757;28;20059;-32
2023/11/26 05:08:43;;;;;;;1.80;1.70;;;-0.10;99.90;;;;;;4968487;28;20353;-33
2023/11/26 05:11:09;;;;;;;2.65;2.45;;;-0.10;99.90;;;;;;4967630;28;20037;-34
2023/11/26 05:13:35;;;;;;;1.90;1.80;;;-0.10;99.90;;;;;;4967006;28;20022;-33
2023/11/26 05:16:01;;;;;;;4.57;2.50;;;-0.10;99.90;;;;;;4967407;28;20030;-32
2023/11/26 05:18:26;;;;;;;3.25;2.17;;;-0.10;99.90;;;;;;4966115;28;20070;-33
2023/11/26 05:20:52;;;;;;;3.60;2.13;;;-0.10;99.90;;;;;;4966504;28;20828;-33
2023/11/26 05:23:18;;;;;;;1.25;1.25;;;-0.20;99.90;;;;;;4967418;28;20990;-34
2023/11/26 05:25:44;;;;;;;1.95;1.85;;;-0.30;99.90;;;;;;4967919;28;20876;-32
2023/11/26 05:28:10;;;;;;;2.35;2.15;;;-0.30;99.90;;;;;;4967980;28;20097;-36
2023/11/26 05:30:35;;;;;;;1.60;1.50;;;-0.30;99.90;;;;;;4966644;28;20488;-32
2023/11/26 05:33:02;;;;;;;2.15;1.95;;;-0.30;99.90;;;;;;4967741;28;20034;-33
2023/11/26 05:35:28;;;;;;;1.98;1.77;;;-0.30;99.90;;;;;;4968419;28;20046;-35
2023/11/26 05:37:55;;;;;;;2.00;1.90;;;-0.30;99.90;;;;;;4968069;28;20495;-40
2023/11/26 05:40:21;;;;;;;2.50;2.08;;;-0.30;99.90;;;;;;4966464;28;20085;-40
2023/11/26 05:42:47;;;;;;;1.80;1.70;;;-0.30;99.90;;;;;;4966234;28;20062;-38
2023/11/26 05:45:13;;;;;;;3.75;2.08;;;-0.30;99.90;;;;;;4967436;28;20057;-43
2023/11/26 05:47:38;;;;;;;3.83;1.60;;;-0.30;99.90;;;;;;4967726;28;20027;-40
2023/11/26 05:50:05;;;;;;;1.60;1.50;;;-0.20;99.90;;;;;;4966481;28;20121;-41
2023/11/26 05:52:31;;;;;;;1.02;1.02;;;-0.20;99.90;;;;;;4970403;28;20034;-41
2023/11/26 05:54:57;;;;;;;1.60;1.50;;;-0.20;99.90;;;;;;4969770;28;20046;-42
2023/11/26 05:57:23;;;;;;;4.93;1.83;;;-0.20;99.90;;;;;;4969882;28;20149;-42
2023/11/26 05:59:49;;;;;;;4.55;2.53;;;-0.20;99.90;;;;;;4947230;28;20073;-40
2023/11/26 06:02:15;;;;;;;1.73;1.63;;;-0.20;99.90;;;;;;4964151;28;20094;-39
2023/11/26 06:04:41;;;;;;;1.92;1.83;;;-0.20;99.90;;;;;;4967376;28;20026;-42
2023/11/26 06:07:08;;;;;;;3.03;1.73;;;-0.20;99.90;;;;;;4969582;28;20023;-39
2023/11/26 06:09:34;;;;;;;1.95;1.85;;;-0.20;99.90;;;;;;4967802;28;20030;-43
2023/11/26 06:12:00;;;;;;;1.65;1.55;;;-0.20;99.90;;;;;;4963927;28;20508;-39
2023/11/26 06:14:25;;;;;;;2.00;1.73;;;-0.20;99.90;;;;;;4970265;28;20105;-42
2023/11/26 06:16:51;;;;;;;1.80;1.63;;;-0.20;99.90;;;;;;4966401;28;20381;-41
2023/11/26 06:19:16;;;;;;;2.75;2.50;;;-0.20;99.90;;;;;;4963857;28;20034;-39
2023/11/26 06:21:43;;;;;;;2.47;1.98;;;-0.30;99.90;;;;;;4967465;28;20031;-40
2023/11/26 06:24:11;;;;;;;2.08;1.85;;;-0.30;99.90;;;;;;4967197;28;20527;-40
2023/11/26 06:26:38;;;;;;;2.08;1.88;;;-0.30;99.90;;;;;;4966481;28;20451;-40
2023/11/26 06:29:05;;;;;;;4.32;2.00;;;-0.30;99.90;;;;;;4965054;28;20036;-40
2023/11/26 06:31:31;;;;;;;2.97;2.10;;;-0.30;99.90;;;;;;4964977;28;20140;-37
2023/11/26 06:33:57;;;;;;;2.00;1.90;;;-0.30;99.90;;;;;;4969523;28;20064;-39
2023/11/26 06:36:24;;;;;;;1.90;1.77;;;-0.30;99.90;;;;;;4965895;28;20050;-34
2023/11/26 06:38:55;;;;;;;2.38;2.17;;;-0.30;99.90;;;;;;4969117;28;20531;-37
2023/11/26 06:41:28;;;;;;;6.78;2.75;;;-0.30;99.90;;;;;;4970291;28;20062;-39
2023/11/26 06:43:57;;;;;;;2.83;2.45;;;-0.30;99.90;;;;;;4966900;28;20370;-40
2023/11/26 06:46:24;;;;;;;3.25;2.92;;;-0.30;99.90;;;;;;4968644;28;20476;-37
2023/11/26 06:48:51;;;;;;;3.15;2.63;;;-0.30;99.90;;;;;;4969467;28;20027;-33
2023/11/26 06:51:19;;;;;;;2.95;2.72;;;-0.30;99.90;;;;;;4967015;28;20027;-33
2023/11/26 06:53:46;;;;;;;4.38;3.47;;;-0.40;99.90;;;;;;4969657;28;20049;-35
2023/11/26 06:56:12;;;;;;;4.55;3.33;;;-0.30;99.90;;;;;;4969421;28;20037;-32
2023/11/26 06:58:39;;;;;;;4.75;3.20;;;-0.30;99.90;;;;;;4969314;28;20039;-32
2023/11/26 07:01:06;;;;;;;3.65;2.83;;;-0.30;99.90;;;;;;4968889;28;20042;-33
2023/11/26 07:03:32;;;;;;;4.80;2.47;;;-0.30;99.90;;;;;;4971434;28;20069;-35
2023/11/26 07:06:04;;;;;;;2.53;2.33;;;-0.30;99.90;;;;;;4968289;28;20027;-35
2023/11/26 07:08:31;;;;;;;3.38;2.50;;;-0.30;99.90;;;;;;4965990;28;20034;-36
2023/11/26 07:10:57;;;;;;;4.03;2.70;;;-0.30;99.90;;;;;;4967969;28;20104;-33
2023/11/26 07:13:22;;;;;;;6.38;3.63;;;-0.30;99.90;;;;;;4968954;28;20026;-33
2023/11/26 07:15:48;;;;;;;6.75;3.10;;;-0.40;99.90;;;;;;4971830;28;20046;-35
2023/11/26 07:18:14;;;;;;;6.47;3.83;;;-0.30;99.90;;;;;;4969412;28;20031;-33
2023/11/26 07:20:41;;;;;;;13.30;5.20;;;-0.30;99.90;;;;;;4968677;28;20071;-34
2023/11/26 07:23:07;;;;;;;12.52;6.55;;;-0.30;99.90;;;;;;4968393;28;20058;-35
2023/11/26 07:25:33;;;;;;;7.53;3.95;;;-0.30;99.90;;;;;;4967637;28;20030;-32
2023/11/26 07:28:02;;;;;;;7.20;5.20;;;-0.20;99.90;;;;;;4973409;28;20472;-40
2023/11/26 07:30:28;;;;;;;7.72;3.35;;;-0.20;99.90;;;;;;4970087;28;20622;-40
2023/11/26 07:32:54;;;;;;;7.55;5.10;;;-0.20;99.90;;;;;;4967836;28;20090;-41
2023/11/26 07:35:19;;;;;;;16.63;7.90;;;-0.20;99.90;;;;;;4964673;28;20130;-41
2023/11/26 07:37:45;;;;;;;7.60;5.30;;;-0.20;99.90;;;;;;4966236;28;20042;-36
2023/11/26 07:40:14;;;;;;;9.43;5.22;;;-0.20;99.90;;;;;;4969903;28;20043;-42
2023/11/26 07:42:41;;;;;;;7.18;4.32;;;-0.10;99.90;;;;;;4969020;28;20031;-40
2023/11/26 07:45:07;;;;;;;3.97;3.05;;;0.00;99.90;;;;;;4965817;28;20453;-41
2023/11/26 07:47:33;;;;;;;5.30;3.85;;;0.00;99.90;;;;;;4966634;28;20030;-36
2023/11/26 07:49:59;;;;;;;7.28;4.18;;;0.00;99.90;;;;;;4968323;28;20381;-42
2023/11/26 07:52:24;;;;;;;6.65;3.78;;;0.10;99.90;;;;;;4968022;28;20067;-35
2023/11/26 07:54:50;;;;;;;4.15;3.28;;;0.10;99.90;;;;;;4966370;28;20035;-40
2023/11/26 07:57:15;;;;;;;4.25;2.72;;;0.10;99.90;;;;;;4968703;28;20034;-42
2023/11/26 07:59:44;;;;;;;5.18;3.05;;;0.10;99.90;;;;;;4967437;28;20039;-42
2023/11/26 08:02:10;;;;;;;;;;;0.10;99.90;;;;;;4966400;28;20027;-43
2023/11/26 08:04:39;;;;;;;3.42;3.13;;;0.20;99.90;;;;;;4965911;28;19914;-41
2023/11/26 08:07:05;;;;;;;4.40;2.88;;;0.20;99.90;;;;;;4967701;28;20031;-40
2023/11/26 08:09:32;;;;;;;6.05;3.88;;;0.20;99.90;;;;;;4969700;28;20353;-32
2023/11/26 08:12:02;;;;;;;5.80;3.40;;;0.30;99.90;;;;;;4968127;28;20038;-39
2023/11/26 08:14:28;;;;;;;3.60;3.20;;;0.30;99.90;;;;;;4970651;28;20046;-41
2023/11/26 08:16:57;;;;;;;4.82;3.28;;;0.30;99.90;;;;;;4966347;28;20046;-33
2023/11/26 08:19:24;;;;;;;6.47;3.45;;;0.40;99.90;;;;;;4968200;28;20507;-43
2023/11/26 08:21:53;;;;;;;4.78;3.28;;;0.40;99.90;;;;;;4964475;28;20050;-37
2023/11/26 08:24:19;;;;;;;;;;;0.40;99.90;;;;;;4968732;28;20198;-40
2023/11/26 08:26:46;;;;;;;3.53;3.20;;;0.40;99.90;;;;;;4968558;28;20406;-36
2023/11/26 08:29:19;;;;;;;4.85;3.45;;;0.50;99.90;;;;;;4967593;28;20085;-40
2023/11/26 08:31:47;;;;;;;3.70;2.40;;;0.50;99.90;;;;;;4966971;28;20039;-39
2023/11/26 08:34:15;;;;;;;3.05;2.75;;;0.50;99.90;;;;;;4967706;28;20629;-40
2023/11/26 08:36:42;;;;;;;4.53;3.05;;;0.60;99.90;;;;;;4967406;28;20041;-38
2023/11/26 08:39:14;;;;;;;3.90;3.05;;;0.60;99.90;;;;;;4968644;28;20043;-30
2023/11/26 08:41:42;;;;;;;5.72;3.20;;;0.60;99.90;;;;;;4969548;28;20042;-30
2023/11/26 08:44:09;;;;;;;4.95;3.40;;;0.70;99.90;;;;;;4966250;28;20110;-31
2023/11/26 08:46:36;;;;;;;4.05;2.83;;;0.70;99.90;;;;;;4965926;28;20026;-31
2023/11/26 08:49:03;;;;;;;3.58;2.95;;;0.80;99.90;;;;;;4947311;28;20035;-32
2023/11/26 08:51:32;;;;;;;2.63;2.15;;;0.80;99.90;;;;;;4967470;28;20026;-30
2023/11/26 08:54:02;;;;;;;3.30;2.40;;;0.90;99.90;;;;;;4968625;28;20038;-31
2023/11/26 08:56:28;;;;;;;2.08;1.92;;;0.90;99.90;;;;;;4971467;28;20075;-31
2023/11/26 08:58:54;;;;;;;2.15;2.00;;;1.00;99.90;;;;;;4968304;28;20051;-30
2023/11/26 09:01:20;;;;;;;3.70;2.08;;;1.00;99.90;;;;;;4967327;28;20549;-31
2023/11/26 09:03:46;;;;;;;2.50;2.40;;;1.10;99.90;;;;;;4965436;28;20025;-36
2023/11/26 09:06:12;;;;;;;4.57;3.10;;;1.10;99.90;;;;;;4970398;28;20027;-31
2023/11/26 09:08:38;;;;;;;2.55;2.35;;;1.10;99.90;;;;;;4967989;28;20066;-31
2023/11/26 09:11:04;;;;;;;6.95;3.97;;;1.20;99.90;;;;;;4969055;28;20429;-30
2023/11/26 09:13:30;;;;;;;4.57;3.33;;;1.20;99.90;;;;;;4967555;28;20088;-37
2023/11/26 09:16:00;;;;;;;3.85;2.50;;;1.20;99.90;;;;;;4967932;28;20070;-33
2023/11/26 09:18:26;;;;;;;2.28;2.08;;;1.30;99.90;;;;;;4967600;28;20035;-30
2023/11/26 09:20:51;;;;;;;2.03;1.92;;;1.30;99.90;;;;;;4967237;28;20066;-31
2023/11/26 09:23:17;;;;;;;5.82;2.05;;;1.40;99.90;;;;;;4965852;28;20564;-31
2023/11/26 09:25:43;;;;;;;2.05;1.95;;;1.40;99.90;;;;;;4968403;28;20034;-30
2023/11/26 09:28:09;;;;;;;29.58;16.15;;;1.40;99.90;;;;;;4968268;28;20925;-34
2023/11/26 09:30:35;;;;;;;3.53;2.50;;;1.50;99.90;;;;;;4965248;28;20027;-31
2023/11/26 09:33:02;;;;;;;1.88;1.77;;;1.50;99.90;;;;;;4969457;28;20035;-31
2023/11/26 09:35:28;;;;;;;3.25;3.00;;;1.40;99.90;;;;;;4972074;28;20052;-31
2023/11/26 09:37:53;;;;;;;1.85;1.75;;;1.40;99.90;;;;;;4966644;28;20109;-32
2023/11/26 09:40:19;;;;;;;2.13;1.80;;;1.50;99.90;;;;;;4966150;28;20030;-31
2023/11/26 09:42:54;;;;;;;1.85;1.70;;;1.50;99.90;;;;;;4968554;28;20389;-31
2023/11/26 09:45:20;;;;;;;2.33;2.20;;;1.50;99.90;;;;;;4968295;28;20070;-31
2023/11/26 09:47:45;;;;;;;1.85;1.75;;;1.50;99.90;;;;;;4967679;28;20058;-36
2023/11/26 09:50:11;;;;;;;2.38;2.17;;;1.60;99.90;;;;;;4968388;28;20027;-43
2023/11/26 09:52:38;;;;;;;2.15;1.67;;;1.60;99.90;;;;;;4966937;28;20038;-37
2023/11/26 09:55:05;;;;;;;2.15;2.03;;;1.60;99.90;;;;;;4968147;28;20612;-43
2023/11/26 09:57:31;;;;;;;2.35;1.70;;;1.70;99.90;;;;;;4970293;28;20488;-37
2023/11/26 09:59:58;;;;;;;3.08;2.08;;;1.70;99.90;;;;;;4970953;28;20447;-43
2023/11/26 10:02:23;;;;;;;2.45;2.20;;;1.70;99.90;;;;;;4967859;28;20093;-43
2023/11/26 10:04:51;;;;;;;2.22;2.03;;;1.70;99.90;;;;;;4962608;28;20035;-40
2023/11/26 10:07:18;;;;;;;2.78;1.75;;;1.70;99.90;;;;;;4962802;28;20898;-39
2023/11/26 10:10:03;;;;;;;4.28;2.33;;;1.70;99.90;;;;;;4964731;28;20576;-41
2023/11/26 10:12:29;;;;;;;1.73;1.70;;;1.80;99.90;;;;;;4964510;28;20043;-40
2023/11/26 10:15:05;;;;;;;5.43;3.53;;;1.80;99.90;;;;;;4965024;28;20521;-40
2023/11/26 10:17:31;;;;;;;2.10;1.92;;;1.80;99.90;;;;;;4966235;28;20128;-37
2023/11/26 10:20:18;;;;;;;5.78;2.72;;;1.70;99.90;;;;;;4964903;28;20424;-40
2023/11/26 10:22:45;;;;;;;4.70;2.47;;;1.70;99.90;;;;;;4962593;28;20035;-37
2023/11/26 10:25:12;;;;;;;4.55;3.15;;;1.70;99.90;;;;;;4962326;28;20039;-39
2023/11/26 10:27:38;;;;;;;6.78;3.33;;;1.70;99.90;;;;;;4968616;28;20510;-39
2023/11/26 10:30:04;;;;;;;5.97;2.13;;;1.70;99.90;;;;;;4965661;28;20385;-40
2023/11/26 10:32:30;;;;;;;2.38;1.85;;;1.70;99.90;;;;;;4963329;28;20031;-39
2023/11/26 10:34:56;;;;;;;1.15;1.13;;;1.70;99.90;;;;;;4964382;28;20510;-40
2023/11/26 10:37:21;;;;;;;4.78;2.92;;;1.70;99.90;;;;;;4965200;28;20045;-39
2023/11/26 10:39:53;;;;;;;2.85;1.80;;;1.70;99.90;;;;;;4964693;28;21995;-38
2023/11/26 10:42:19;;;;;;;7.18;4.63;;;1.80;99.90;;;;;;4965633;28;20424;-38
2023/11/26 10:44:53;;;;;;;3.78;1.55;;;1.80;99.90;;;;;;4964992;28;20034;-34
2023/11/26 10:47:22;;;;;;;1.83;1.73;;;1.90;99.90;;;;;;4962639;28;20031;-37
2023/11/26 10:49:51;;;;;;;1.40;1.40;;;1.90;99.90;;;;;;4964750;28;20041;-40
2023/11/26 10:52:45;;;;;;;1.60;1.35;;;1.90;99.90;;;;;;4965641;28;20100;-39
2023/11/26 10:55:16;;;;;;;1.20;1.20;;;1.90;99.90;;;;;;4966164;28;20026;-39
2023/11/26 10:57:47;;;;;;;1.30;1.20;;;2.00;99.90;;;;;;4961652;28;20031;-43
2023/11/26 11:00:18;;;;;;;1.92;1.83;;;2.00;99.90;;;;;;4964185;28;20027;-40
2023/11/26 11:02:45;;;;;;;2.03;1.90;;;2.00;99.90;;;;;;4965088;28;20038;-40
2023/11/26 11:05:12;;;;;;;1.75;1.55;;;2.00;99.90;;;;;;4966324;28;20030;-42
2023/11/26 11:07:39;;;;;;;1.83;1.63;;;2.00;99.90;;;;;;4961585;28;20038;-37
2023/11/26 11:10:41;;;;;;;2.15;1.98;;;2.10;99.90;;;;;;4964483;28;20070;-41
2023/11/26 11:13:17;;;;;;;1.55;1.45;;;2.10;99.90;;;;;;4965185;28;20039;-37
2023/11/26 11:15:44;;;;;;;1.08;1.08;;;2.10;99.90;;;;;;4962820;28;20039;-43
2023/11/26 11:18:28;;;;;;;2.33;1.67;;;2.10;99.90;;;;;;4965270;28;20034;-41
2023/11/26 11:21:10;;;;;;;1.70;1.60;;;2.10;99.90;;;;;;4963981;28;20087;-42
2023/11/26 11:23:42;;;;;;;1.50;1.40;;;2.10;99.90;;;;;;4965511;28;20503;-42
2023/11/26 11:26:09;;;;;;;1.48;1.38;;;2.10;99.90;;;;;;4969777;28;20603;-40
2023/11/26 11:28:37;;;;;;;1.17;1.17;;;2.20;99.90;;;;;;4968525;28;20034;-39
2023/11/26 11:31:03;;;;;;;2.45;2.00;;;2.20;99.90;;;;;;4967820;28;20122;-42
2023/11/26 11:33:28;;;;;;;1.50;1.40;;;2.20;99.90;;;;;;4968549;28;20126;-43
2023/11/26 11:35:54;;;;;;;1.10;1.10;;;2.30;99.90;;;;;;4964947;28;20861;-42
2023/11/26 11:38:20;;;;;;;2.03;1.63;;;2.30;99.90;;;;;;4965072;28;20031;-39
2023/11/26 11:41:13;;;;;;;1.90;1.80;;;2.40;99.90;;;;;;4966889;28;20481;-35
2023/11/26 11:43:41;;;;;;;1.50;1.50;;;2.40;99.90;;;;;;4965426;28;20515;-42
2023/11/26 11:46:25;;;;;;;2.97;2.17;;;2.50;99.90;;;;;;4968114;28;20600;-41
2023/11/26 11:48:55;;;;;;;2.75;1.90;;;2.50;99.90;;;;;;4968610;28;20039;-42
2023/11/26 11:51:31;;;;;;;3.83;1.88;;;2.50;99.90;;;;;;4970019;28;20069;-43
2023/11/26 11:54:08;;;;;;;2.83;2.58;;;2.50;99.90;;;;;;4967028;28;20034;-42
2023/11/26 11:56:36;;;;;;;3.53;2.47;;;2.60;99.90;;;;;;4965919;28;20069;-41
2023/11/26 11:59:03;;;;;;;2.55;2.35;;;2.70;99.90;;;;;;4967412;28;20034;-41
2023/11/26 12:01:30;;;;;;;2.53;2.13;;;2.70;99.90;;;;;;4964807;28;20520;-35
2023/11/26 12:04:00;;;;;;;2.55;1.92;;;2.70;99.90;;;;;;4967207;28;20034;-42
2023/11/26 12:06:30;;;;;;;6.07;3.08;;;2.70;99.90;;;;;;4967394;28;20405;-36
2023/11/26 12:09:00;;;;;;;2.60;2.40;;;2.70;99.90;;;;;;4964609;28;20072;-33
2023/11/26 12:11:25;;;;;;;3.00;2.60;;;2.80;99.90;;;;;;4967348;28;20041;-31
2023/11/26 12:13:51;;;;;;;2.38;2.10;;;2.80;99.90;;;;;;4964536;28;20492;-31
2023/11/26 12:16:20;;;;;;;2.80;2.58;;;2.90;99.90;;;;;;4966551;28;20022;-37
2023/11/26 12:18:46;;;;;;;2.58;1.92;;;2.90;99.90;;;;;;4965345;28;20566;-32
2023/11/26 12:21:12;;;;;;;3.58;2.33;;;3.00;99.90;;;;;;4965368;28;20133;-31
2023/11/26 12:23:38;;;;;;;97.28;21.05;;;3.10;99.90;;;;;;4967246;28;20392;-34
2023/11/26 12:26:05;;;;;;;1.70;1.58;;;3.30;99.90;;;;;;4966067;28;20019;-30
2023/11/26 12:28:43;;;;;;;4.82;2.13;;;3.40;99.90;;;;;;4969333;28;20444;-34
2023/11/26 12:31:09;;;;;;;;;;;3.40;99.90;;;;;;4965377;28;20089;-32
2023/11/26 12:33:43;;;;;;;1.48;1.38;;;3.40;99.90;;;;;;4966848;28;19945;-33
2023/11/26 12:36:13;;;;;;;2.53;2.33;;;3.30;99.90;;;;;;4966003;28;20202;-31
2023/11/26 12:38:41;;;;;;;1.25;1.25;;;3.30;99.90;;;;;;4967202;28;20114;-43
2023/11/26 12:41:07;;;;;;;3.20;2.40;;;3.30;99.90;;;;;;4963368;28;20213;-41
2023/11/26 12:43:33;;;;;;;2.13;2.03;;;3.30;99.90;;;;;;4966070;28;20487;-38
2023/11/26 12:46:16;;;;;;;2.10;2.00;;;3.30;99.90;;;;;;4965332;28;20027;-40
2023/11/26 12:48:42;;;;;;;1.40;1.30;;;3.30;99.90;;;;;;4964856;28;20038;-42
2023/11/26 12:51:08;;;;;;;3.92;3.25;;;3.30;99.90;;;;;;4963694;28;20702;-41
2023/11/26 12:53:34;;;;;;;4.00;1.92;;;3.30;99.90;;;;;;4967362;28;20059;-42
2023/11/26 12:56:00;;;;;;;3.28;1.90;;;3.30;99.90;;;;;;4967115;28;20388;-38
2023/11/26 12:58:29;;;;;;;1.42;1.35;;;3.30;99.90;;;;;;4968028;28;20031;-37